Augusta, Wisconsin
Current Conditions -  °F | °C
As of 8:56 PM on Monday 20 Oct 2014 (Local Time) from KEAU Reporting Station
Few Clouds Few Clouds  
Wind Chill: 45°   Ceiling: Unl
Heat Index: 48°   Visibility: 10mi
Dew Point: 37°   Wind: 7mph
Humidity: 66%   Direction: 360°N
Pressure: 30.05"   Gusts: NA
Location:  44.68°N, 91.12°W
Report Text: KEAU 210156Z AUTO 36006KT 10SM FEW042 09/03 A3005 RMK AO2 SLP180 T00890028
Loading
Personal Weather Stations






























Interactive Weather Map
Tropical Storm Tracking
New forecast layout! Learn more

10-Day Weather Forecast

Advertisements
Track Severe Weather on mobile